sensor_id;sensor_type;location;lat;lon;timestamp;pressure;altitude;pressure_sealevel;temperature;humidity
75136;BME280;63707;52.212;9.540;2023-11-19T00:00:08;99383.66;;;5.58;100.00
75136;BME280;63707;52.212;9.540;2023-11-19T00:02:37;99379.72;;;5.61;100.00
75136;BME280;63707;52.212;9.540;2023-11-19T00:05:03;99371.81;;;5.59;100.00
75136;BME280;63707;52.212;9.540;2023-11-19T00:07:30;99365.19;;;5.62;100.00
75136;BME280;63707;52.212;9.540;2023-11-19T00:09:55;99356.06;;;5.63;100.00
75136;BME280;63707;52.212;9.540;2023-11-19T00:12:21;99356.50;;;5.66;100.00
75136;BME280;63707;52.212;9.540;2023-11-19T00:14:47;99354.63;;;5.67;100.00
75136;BME280;63707;52.212;9.540;2023-11-19T00:17:13;99346.53;;;5.67;100.00
75136;BME280;63707;52.212;9.540;2023-11-19T00:19:38;99342.25;;;5.73;100.00
75136;BME280;63707;52.212;9.540;2023-11-19T00:22:04;99308.53;;;5.68;100.00
75136;BME280;63707;52.212;9.540;2023-11-19T00:24:30;99309.81;;;5.73;100.00
75136;BME280;63707;52.212;9.540;2023-11-19T00:26:57;99309.44;;;5.76;100.00
75136;BME280;63707;52.212;9.540;2023-11-19T00:29:22;99310.72;;;5.80;100.00
75136;BME280;63707;52.212;9.540;2023-11-19T00:31:48;99309.03;;;5.79;100.00
75136;BME280;63707;52.212;9.540;2023-11-19T00:34:13;99305.75;;;5.83;100.00
75136;BME280;63707;52.212;9.540;2023-11-19T00:36:39;99309.72;;;5.87;100.00
75136;BME280;63707;52.212;9.540;2023-11-19T00:39:04;99308.69;;;5.88;100.00
75136;BME280;63707;52.212;9.540;2023-11-19T00:41:32;99310.66;;;5.94;100.00
75136;BME280;63707;52.212;9.540;2023-11-19T00:43:58;99307.13;;;5.94;100.00
75136;BME280;63707;52.212;9.540;2023-11-19T00:46:23;99309.81;;;5.94;100.00
75136;BME280;63707;52.212;9.540;2023-11-19T00:48:49;99308.59;;;5.96;100.00
75136;BME280;63707;52.212;9.540;2023-11-19T00:51:14;99304.22;;;5.95;100.00
75136;BME280;63707;52.212;9.540;2023-11-19T00:53:40;99299.25;;;5.99;100.00
75136;BME280;63707;52.212;9.540;2023-11-19T00:56:06;99291.38;;;6.04;100.00
75136;BME280;63707;52.212;9.540;2023-11-19T00:58:33;99299.31;;;6.06;100.00
75136;BME280;63707;52.212;9.540;2023-11-19T01:00:59;99281.22;;;6.06;100.00
75136;BME280;63707;52.212;9.540;2023-11-19T01:03:25;99285.59;;;6.07;100.00
75136;BME280;63707;52.212;9.540;2023-11-19T01:05:51;99282.25;;;6.05;100.00
75136;BME280;63707;52.212;9.540;2023-11-19T01:08:17;99274.97;;;6.06;100.00
75136;BME280;63707;52.212;9.540;2023-11-19T01:10:43;99266.84;;;6.06;100.00
75136;BME280;63707;52.212;9.540;2023-11-19T01:13:09;99263.31;;;6.05;100.00
75136;BME280;63707;52.212;9.540;2023-11-19T01:15:36;99257.50;;;6.08;100.00
75136;BME280;63707;52.212;9.540;2023-11-19T01:18:02;99253.84;;;6.16;100.00
75136;BME280;63707;52.212;9.540;2023-11-19T01:20:30;99243.88;;;6.16;100.00
75136;BME280;63707;52.212;9.540;2023-11-19T01:22:55;99245.06;;;6.14;100.00
75136;BME280;63707;52.212;9.540;2023-11-19T01:25:21;99239.28;;;6.17;100.00
75136;BME280;63707;52.212;9.540;2023-11-19T01:27:47;99244.09;;;6.21;100.00
75136;BME280;63707;52.212;9.540;2023-11-19T01:30:13;99244.28;;;6.20;100.00
75136;BME280;63707;52.212;9.540;2023-11-19T01:32:40;99243.06;;;6.22;100.00
75136;BME280;63707;52.212;9.540;2023-11-19T01:35:06;99232.88;;;6.24;100.00
75136;BME280;63707;52.212;9.540;2023-11-19T01:37:33;99228.50;;;6.23;100.00
75136;BME280;63707;52.212;9.540;2023-11-19T01:40:00;99217.94;;;6.28;100.00
75136;BME280;63707;52.212;9.540;2023-11-19T01:42:25;99233.94;;;6.30;100.00
75136;BME280;63707;52.212;9.540;2023-11-19T01:44:58;99235.38;;;6.26;100.00
75136;BME280;63707;52.212;9.540;2023-11-19T01:47:24;99232.25;;;6.22;100.00
75136;BME280;63707;52.212;9.540;2023-11-19T01:49:51;99224.78;;;6.24;100.00
75136;BME280;63707;52.212;9.540;2023-11-19T01:52:17;99223.09;;;6.23;100.00
75136;BME280;63707;52.212;9.540;2023-11-19T01:54:43;99224.78;;;6.24;100.00
75136;BME280;63707;52.212;9.540;2023-11-19T01:57:09;99230.19;;;6.24;100.00
75136;BME280;63707;52.212;9.540;2023-11-19T01:59:34;99217.09;;;6.28;100.00
75136;BME280;63707;52.212;9.540;2023-11-19T02:02:00;99225.56;;;6.18;100.00
75136;BME280;63707;52.212;9.540;2023-11-19T02:04:26;99203.03;;;6.11;100.00
75136;BME280;63707;52.212;9.540;2023-11-19T02:06:56;99204.44;;;6.07;100.00
75136;BME280;63707;52.212;9.540;2023-11-19T02:09:23;99193.19;;;6.04;100.00
75136;BME280;63707;52.212;9.540;2023-11-19T02:11:49;99193.84;;;6.06;100.00
75136;BME280;63707;52.212;9.540;2023-11-19T02:14:17;99202.16;;;6.04;100.00
75136;BME280;63707;52.212;9.540;2023-11-19T02:16:42;99174.06;;;6.05;100.00
75136;BME280;63707;52.212;9.540;2023-11-19T02:19:08;99178.03;;;6.09;100.00
75136;BME280;63707;52.212;9.540;2023-11-19T02:21:35;99172.44;;;6.11;100.00
75136;BME280;63707;52.212;9.540;2023-11-19T02:24:05;99163.56;;;6.17;100.00
75136;BME280;63707;52.212;9.540;2023-11-19T02:26:38;99151.69;;;6.18;100.00
75136;BME280;63707;52.212;9.540;2023-11-19T02:29:06;99147.56;;;6.22;100.00
75136;BME280;63707;52.212;9.540;2023-11-19T02:31:34;99146.16;;;6.32;100.00
75136;BME280;63707;52.212;9.540;2023-11-19T02:34:00;99144.31;;;6.40;100.00
75136;BME280;63707;52.212;9.540;2023-11-19T02:36:27;99135.16;;;6.41;100.00
75136;BME280;63707;52.212;9.540;2023-11-19T02:38:53;99139.75;;;6.47;100.00
75136;BME280;63707;52.212;9.540;2023-11-19T02:41:18;99142.03;;;6.50;100.00
75136;BME280;63707;52.212;9.540;2023-11-19T02:43:44;99139.78;;;6.53;100.00
75136;BME280;63707;52.212;9.540;2023-11-19T02:46:11;99132.25;;;6.49;100.00
75136;BME280;63707;52.212;9.540;2023-11-19T02:48:36;99120.00;;;6.53;100.00
75136;BME280;63707;52.212;9.540;2023-11-19T02:51:02;99117.09;;;6.54;100.00
75136;BME280;63707;52.212;9.540;2023-11-19T02:53:28;99111.25;;;6.57;100.00
75136;BME280;63707;52.212;9.540;2023-11-19T02:55:54;99104.41;;;6.61;100.00
75136;BME280;63707;52.212;9.540;2023-11-19T02:58:26;99097.13;;;6.62;100.00
75136;BME280;63707;52.212;9.540;2023-11-19T03:00:53;99102.56;;;6.69;100.00
75136;BME280;63707;52.212;9.540;2023-11-19T03:03:36;99100.69;;;6.69;100.00
75136;BME280;63707;52.212;9.540;2023-11-19T03:06:06;99099.66;;;6.70;100.00
75136;BME280;63707;52.212;9.540;2023-11-19T03:08:31;99091.75;;;6.75;100.00
75136;BME280;63707;52.212;9.540;2023-11-19T03:10:57;99083.44;;;6.77;100.00
75136;BME280;63707;52.212;9.540;2023-11-19T03:13:24;99093.00;;;6.79;100.00
75136;BME280;63707;52.212;9.540;2023-11-19T03:15:50;99095.31;;;6.82;100.00
75136;BME280;63707;52.212;9.540;2023-11-19T03:18:16;99090.94;;;6.81;100.00
75136;BME280;63707;52.212;9.540;2023-11-19T03:20:43;99088.22;;;6.81;100.00
75136;BME280;63707;52.212;9.540;2023-11-19T03:23:09;99090.31;;;6.86;100.00
75136;BME280;63707;52.212;9.540;2023-11-19T03:25:35;99081.97;;;6.81;100.00
75136;BME280;63707;52.212;9.540;2023-11-19T03:28:02;99085.53;;;6.88;100.00
75136;BME280;63707;52.212;9.540;2023-11-19T03:30:28;99090.94;;;6.88;100.00
75136;BME280;63707;52.212;9.540;2023-11-19T03:32:53;99092.19;;;6.92;100.00
75136;BME280;63707;52.212;9.540;2023-11-19T03:35:19;99088.84;;;6.97;100.00
75136;BME280;63707;52.212;9.540;2023-11-19T03:37:46;99078.03;;;6.97;100.00
75136;BME280;63707;52.212;9.540;2023-11-19T03:40:11;99078.84;;;6.97;100.00
75136;BME280;63707;52.212;9.540;2023-11-19T03:42:37;99066.78;;;7.00;100.00
75136;BME280;63707;52.212;9.540;2023-11-19T03:45:05;99064.69;;;7.02;100.00
75136;BME280;63707;52.212;9.540;2023-11-19T03:47:32;99060.53;;;6.99;100.00
75136;BME280;63707;52.212;9.540;2023-11-19T03:49:57;99059.91;;;6.97;100.00
75136;BME280;63707;52.212;9.540;2023-11-19T03:52:23;99048.66;;;7.00;100.00
75136;BME280;63707;52.212;9.540;2023-11-19T03:54:49;99044.69;;;7.03;100.00
75136;BME280;63707;52.212;9.540;2023-11-19T03:57:15;99041.56;;;7.06;100.00
75136;BME280;63707;52.212;9.540;2023-11-19T03:59:43;99043.69;;;7.10;100.00
75136;BME280;63707;52.212;9.540;2023-11-19T04:02:09;99037.22;;;7.11;100.00
75136;BME280;63707;52.212;9.540;2023-11-19T04:04:35;99035.34;;;7.18;100.00
75136;BME280;63707;52.212;9.540;2023-11-19T04:07:01;99027.22;;;7.18;100.00
75136;BME280;63707;52.212;9.540;2023-11-19T04:09:28;99026.56;;;7.23;100.00
75136;BME280;63707;52.212;9.540;2023-11-19T04:11:55;99021.56;;;7.26;100.00
75136;BME280;63707;52.212;9.540;2023-11-19T04:14:20;99031.56;;;7.33;100.00
75136;BME280;63707;52.212;9.540;2023-11-19T04:16:46;99041.97;;;7.36;100.00
75136;BME280;63707;52.212;9.540;2023-11-19T04:19:12;99038.41;;;7.42;100.00
75136;BME280;63707;52.212;9.540;2023-11-19T04:21:40;99032.16;;;7.48;100.00
75136;BME280;63707;52.212;9.540;2023-11-19T04:24:07;99031.72;;;7.51;100.00
75136;BME280;63707;52.212;9.540;2023-11-19T04:26:32;99036.34;;;7.57;100.00
75136;BME280;63707;52.212;9.540;2023-11-19T04:28:59;99036.31;;;7.64;100.00
75136;BME280;63707;52.212;9.540;2023-11-19T04:31:28;99045.91;;;7.66;100.00
75136;BME280;63707;52.212;9.540;2023-11-19T04:33:54;99034.63;;;7.69;100.00
75136;BME280;63707;52.212;9.540;2023-11-19T04:36:20;99037.56;;;7.68;100.00
75136;BME280;63707;52.212;9.540;2023-11-19T04:38:49;99029.41;;;7.68;100.00
75136;BME280;63707;52.212;9.540;2023-11-19T04:41:15;99033.19;;;7.67;100.00
75136;BME280;63707;52.212;9.540;2023-11-19T04:43:40;99028.00;;;7.58;100.00
75136;BME280;63707;52.212;9.540;2023-11-19T04:46:09;99032.75;;;7.56;100.00
75136;BME280;63707;52.212;9.540;2023-11-19T04:48:35;99023.41;;;7.59;100.00
75136;BME280;63707;52.212;9.540;2023-11-19T04:51:00;99031.50;;;7.52;100.00
75136;BME280;63707;52.212;9.540;2023-11-19T04:53:26;99026.31;;;7.51;100.00
75136;BME280;63707;52.212;9.540;2023-11-19T04:55:51;99027.97;;;7.52;100.00
75136;BME280;63707;52.212;9.540;2023-11-19T04:58:17;99018.59;;;7.61;100.00
75136;BME280;63707;52.212;9.540;2023-11-19T05:00:42;99029.22;;;7.69;100.00
75136;BME280;63707;52.212;9.540;2023-11-19T05:03:09;99027.09;;;7.78;100.00
75136;BME280;63707;52.212;9.540;2023-11-19T05:05:35;99026.63;;;7.87;100.00
75136;BME280;63707;52.212;9.540;2023-11-19T05:08:00;99019.13;;;7.89;100.00
75136;BME280;63707;52.212;9.540;2023-11-19T05:10:26;99012.63;;;7.97;100.00
75136;BME280;63707;52.212;9.540;2023-11-19T05:12:52;99004.03;;;8.00;100.00
75136;BME280;63707;52.212;9.540;2023-11-19T05:15:17;98995.06;;;8.06;100.00
75136;BME280;63707;52.212;9.540;2023-11-19T05:17:43;98996.91;;;8.12;100.00
75136;BME280;63707;52.212;9.540;2023-11-19T05:20:10;98991.22;;;8.20;100.00
75136;BME280;63707;52.212;9.540;2023-11-19T05:22:39;98991.44;;;8.19;100.00
75136;BME280;63707;52.212;9.540;2023-11-19T05:25:05;98979.75;;;8.18;100.00
75136;BME280;63707;52.212;9.540;2023-11-19T05:27:31;98981.81;;;8.23;100.00
75136;BME280;63707;52.212;9.540;2023-11-19T05:29:56;98975.50;;;8.36;100.00
75136;BME280;63707;52.212;9.540;2023-11-19T05:32:22;98972.34;;;8.39;100.00
75136;BME280;63707;52.212;9.540;2023-11-19T05:34:47;98979.13;;;8.61;100.00
75136;BME280;63707;52.212;9.540;2023-11-19T05:37:14;98981.88;;;8.55;100.00
75136;BME280;63707;52.212;9.540;2023-11-19T05:39:39;98984.66;;;8.73;100.00
75136;BME280;63707;52.212;9.540;2023-11-19T05:42:05;99004.41;;;9.11;100.00
75136;BME280;63707;52.212;9.540;2023-11-19T05:44:30;98981.59;;;9.56;100.00
75136;BME280;63707;52.212;9.540;2023-11-19T05:46:56;98975.47;;;9.78;100.00
75136;BME280;63707;52.212;9.540;2023-11-19T05:49:21;98993.16;;;9.88;100.00
75136;BME280;63707;52.212;9.540;2023-11-19T05:51:47;98980.69;;;9.98;100.00
75136;BME280;63707;52.212;9.540;2023-11-19T05:54:14;98981.81;;;10.09;100.00
75136;BME280;63707;52.212;9.540;2023-11-19T05:56:39;98975.59;;;10.20;100.00
75136;BME280;63707;52.212;9.540;2023-11-19T05:59:05;98973.03;;;10.25;100.00
75136;BME280;63707;52.212;9.540;2023-11-19T06:01:39;98977.41;;;10.26;100.00
75136;BME280;63707;52.212;9.540;2023-11-19T06:04:06;98972.16;;;10.43;100.00
75136;BME280;63707;52.212;9.540;2023-11-19T06:06:32;98990.75;;;10.46;100.00
75136;BME280;63707;52.212;9.540;2023-11-19T06:08:57;98969.56;;;10.48;100.00
75136;BME280;63707;52.212;9.540;2023-11-19T06:11:24;98967.78;;;10.42;100.00
75136;BME280;63707;52.212;9.540;2023-11-19T06:13:52;98963.75;;;11.10;100.00
75136;BME280;63707;52.212;9.540;2023-11-19T06:16:17;98970.34;;;10.79;100.00
75136;BME280;63707;52.212;9.540;2023-11-19T06:18:43;98971.81;;;11.04;100.00
75136;BME280;63707;52.212;9.540;2023-11-19T06:21:09;98983.13;;;10.78;100.00
75136;BME280;63707;52.212;9.540;2023-11-19T06:23:35;98983.34;;;10.65;100.00
75136;BME280;63707;52.212;9.540;2023-11-19T06:26:00;98984.28;;;10.59;100.00
75136;BME280;63707;52.212;9.540;2023-11-19T06:28:27;98986.31;;;10.63;100.00
75136;BME280;63707;52.212;9.540;2023-11-19T06:30:53;98982.97;;;10.61;100.00
75136;BME280;63707;52.212;9.540;2023-11-19T06:33:18;98996.00;;;10.59;100.00
75136;BME280;63707;52.212;9.540;2023-11-19T06:35:44;98992.56;;;10.64;100.00
75136;BME280;63707;52.212;9.540;2023-11-19T06:38:10;98997.31;;;10.68;100.00
75136;BME280;63707;52.212;9.540;2023-11-19T06:40:35;98997.44;;;10.62;100.00
75136;BME280;63707;52.212;9.540;2023-11-19T06:43:01;98993.66;;;10.63;100.00
75136;BME280;63707;52.212;9.540;2023-11-19T06:45:29;98996.34;;;10.51;100.00
75136;BME280;63707;52.212;9.540;2023-11-19T06:47:55;98998.72;;;10.59;100.00
75136;BME280;63707;52.212;9.540;2023-11-19T06:50:20;99000.75;;;10.64;100.00
75136;BME280;63707;52.212;9.540;2023-11-19T06:52:46;98992.72;;;10.69;100.00
75136;BME280;63707;52.212;9.540;2023-11-19T06:55:12;98993.28;;;10.59;100.00
75136;BME280;63707;52.212;9.540;2023-11-19T06:57:38;98995.41;;;10.57;100.00
75136;BME280;63707;52.212;9.540;2023-11-19T07:00:04;99020.06;;;10.62;100.00
75136;BME280;63707;52.212;9.540;2023-11-19T07:02:32;99020.41;;;10.66;100.00
75136;BME280;63707;52.212;9.540;2023-11-19T07:04:58;99010.81;;;10.63;100.00
75136;BME280;63707;52.212;9.540;2023-11-19T07:07:23;99023.84;;;10.61;100.00
75136;BME280;63707;52.212;9.540;2023-11-19T07:09:49;99037.81;;;10.65;100.00
75136;BME280;63707;52.212;9.540;2023-11-19T07:12:15;99029.06;;;10.63;100.00
75136;BME280;63707;52.212;9.540;2023-11-19T07:14:40;99030.81;;;10.57;100.00
75136;BME280;63707;52.212;9.540;2023-11-19T07:17:07;99037.09;;;10.58;100.00
75136;BME280;63707;52.212;9.540;2023-11-19T07:19:35;99043.13;;;10.60;100.00
75136;BME280;63707;52.212;9.540;2023-11-19T07:22:02;99042.31;;;10.59;100.00
75136;BME280;63707;52.212;9.540;2023-11-19T07:24:27;99040.88;;;10.57;100.00
75136;BME280;63707;52.212;9.540;2023-11-19T07:26:53;99038.03;;;10.52;100.00
75136;BME280;63707;52.212;9.540;2023-11-19T07:29:19;99045.22;;;10.46;100.00
75136;BME280;63707;52.212;9.540;2023-11-19T07:31:48;99052.47;;;10.52;100.00
75136;BME280;63707;52.212;9.540;2023-11-19T07:34:13;99075.22;;;10.58;100.00
75136;BME280;63707;52.212;9.540;2023-11-19T07:36:40;99057.81;;;10.59;100.00
75136;BME280;63707;52.212;9.540;2023-11-19T07:39:06;99055.09;;;10.59;100.00
75136;BME280;63707;52.212;9.540;2023-11-19T07:41:32;99063.72;;;10.56;100.00
75136;BME280;63707;52.212;9.540;2023-11-19T07:43:58;99058.78;;;10.64;100.00
75136;BME280;63707;52.212;9.540;2023-11-19T07:46:23;99075.38;;;10.63;100.00
75136;BME280;63707;52.212;9.540;2023-11-19T07:48:50;99072.72;;;10.56;100.00
75136;BME280;63707;52.212;9.540;2023-11-19T07:51:16;99080.34;;;10.66;100.00
75136;BME280;63707;52.212;9.540;2023-11-19T07:53:43;99070.06;;;10.68;100.00
75136;BME280;63707;52.212;9.540;2023-11-19T07:56:09;99065.59;;;11.27;100.00
75136;BME280;63707;52.212;9.540;2023-11-19T07:58:34;99073.34;;;11.53;100.00
75136;BME280;63707;52.212;9.540;2023-11-19T08:01:00;99067.41;;;11.45;100.00
75136;BME280;63707;52.212;9.540;2023-11-19T08:03:27;99073.00;;;10.96;100.00
75136;BME280;63707;52.212;9.540;2023-11-19T08:05:55;99074.56;;;10.74;100.00
75136;BME280;63707;52.212;9.540;2023-11-19T08:08:20;99078.69;;;10.65;100.00
75136;BME280;63707;52.212;9.540;2023-11-19T08:10:47;99072.63;;;10.63;100.00
75136;BME280;63707;52.212;9.540;2023-11-19T08:13:13;99079.75;;;10.64;100.00
75136;BME280;63707;52.212;9.540;2023-11-19T08:15:39;99086.88;;;10.65;100.00
75136;BME280;63707;52.212;9.540;2023-11-19T08:18:05;99098.53;;;10.54;100.00
75136;BME280;63707;52.212;9.540;2023-11-19T08:20:31;99088.97;;;10.63;100.00
75136;BME280;63707;52.212;9.540;2023-11-19T08:22:56;99100.22;;;10.55;100.00
75136;BME280;63707;52.212;9.540;2023-11-19T08:25:22;99109.28;;;10.49;100.00
75136;BME280;63707;52.212;9.540;2023-11-19T08:27:49;99104.69;;;10.49;100.00
75136;BME280;63707;52.212;9.540;2023-11-19T08:30:15;99109.81;;;10.57;100.00
75136;BME280;63707;52.212;9.540;2023-11-19T08:32:40;99105.19;;;10.58;100.00
75136;BME280;63707;52.212;9.540;2023-11-19T08:35:07;99097.75;;;10.65;100.00
75136;BME280;63707;52.212;9.540;2023-11-19T08:37:32;99101.31;;;10.65;100.00
75136;BME280;63707;52.212;9.540;2023-11-19T08:39:58;99102.16;;;10.66;100.00
75136;BME280;63707;52.212;9.540;2023-11-19T08:42:24;99097.16;;;10.63;100.00
75136;BME280;63707;52.212;9.540;2023-11-19T08:44:51;99100.66;;;10.52;100.00
75136;BME280;63707;52.212;9.540;2023-11-19T08:47:19;99105.97;;;10.47;100.00
75136;BME280;63707;52.212;9.540;2023-11-19T08:49:45;99113.22;;;10.34;100.00
75136;BME280;63707;52.212;9.540;2023-11-19T08:52:10;99117.69;;;10.29;100.00
75136;BME280;63707;52.212;9.540;2023-11-19T08:54:36;99114.34;;;10.08;100.00
75136;BME280;63707;52.212;9.540;2023-11-19T08:57:02;99112.53;;;10.02;100.00
75136;BME280;63707;52.212;9.540;2023-11-19T08:59:28;99103.69;;;10.07;100.00
75136;BME280;63707;52.212;9.540;2023-11-19T09:01:55;99107.69;;;10.04;100.00
75136;BME280;63707;52.212;9.540;2023-11-19T09:04:20;99105.25;;;9.96;100.00
75136;BME280;63707;52.212;9.540;2023-11-19T09:06:48;99121.97;;;10.00;100.00
75136;BME280;63707;52.212;9.540;2023-11-19T09:09:14;99118.88;;;10.15;100.00
75136;BME280;63707;52.212;9.540;2023-11-19T09:11:40;99111.16;;;10.12;100.00
75136;BME280;63707;52.212;9.540;2023-11-19T09:14:05;99123.94;;;10.11;100.00
75136;BME280;63707;52.212;9.540;2023-11-19T09:16:31;99127.00;;;10.21;100.00
75136;BME280;63707;52.212;9.540;2023-11-19T09:18:57;99113.75;;;10.25;100.00
75136;BME280;63707;52.212;9.540;2023-11-19T09:21:24;99129.41;;;10.29;100.00
75136;BME280;63707;52.212;9.540;2023-11-19T09:23:50;99122.22;;;10.35;100.00
75136;BME280;63707;52.212;9.540;2023-11-19T09:26:16;99116.09;;;10.39;100.00
75136;BME280;63707;52.212;9.540;2023-11-19T09:28:41;99127.81;;;10.58;100.00
75136;BME280;63707;52.212;9.540;2023-11-19T09:31:13;99127.78;;;10.77;100.00
75136;BME280;63707;52.212;9.540;2023-11-19T09:33:38;99122.66;;;10.98;100.00
75136;BME280;63707;52.212;9.540;2023-11-19T09:36:06;99125.88;;;10.77;100.00
75136;BME280;63707;52.212;9.540;2023-11-19T09:38:31;99134.59;;;10.67;100.00
75136;BME280;63707;52.212;9.540;2023-11-19T09:40:58;99141.31;;;10.83;100.00
75136;BME280;63707;52.212;9.540;2023-11-19T09:43:25;99123.63;;;11.04;100.00
75136;BME280;63707;52.212;9.540;2023-11-19T09:45:56;99127.97;;;10.93;100.00
75136;BME280;63707;52.212;9.540;2023-11-19T09:48:24;99125.44;;;11.22;100.00
75136;BME280;63707;52.212;9.540;2023-11-19T09:50:50;99128.19;;;11.33;100.00
75136;BME280;63707;52.212;9.540;2023-11-19T09:53:18;99111.78;;;11.63;100.00
75136;BME280;63707;52.212;9.540;2023-11-19T09:55:45;99125.34;;;11.28;100.00
75136;BME280;63707;52.212;9.540;2023-11-19T09:58:12;99119.03;;;11.16;100.00
75136;BME280;63707;52.212;9.540;2023-11-19T10:00:39;99121.91;;;11.33;100.00
75136;BME280;63707;52.212;9.540;2023-11-19T10:03:06;99109.66;;;11.12;100.00
75136;BME280;63707;52.212;9.540;2023-11-19T10:05:32;99125.78;;;10.84;100.00
75136;BME280;63707;52.212;9.540;2023-11-19T10:07:58;99137.97;;;10.81;100.00
75136;BME280;63707;52.212;9.540;2023-11-19T10:10:25;99136.31;;;10.80;100.00
75136;BME280;63707;52.212;9.540;2023-11-19T10:12:51;99127.88;;;10.70;100.00
75136;BME280;63707;52.212;9.540;2023-11-19T10:15:20;99130.94;;;10.92;100.00
75136;BME280;63707;52.212;9.540;2023-11-19T10:17:46;99138.41;;;10.48;100.00
75136;BME280;63707;52.212;9.540;2023-11-19T10:20:11;99124.72;;;10.36;100.00
75136;BME280;63707;52.212;9.540;2023-11-19T10:22:37;99126.69;;;10.29;100.00
75136;BME280;63707;52.212;9.540;2023-11-19T10:25:04;99133.09;;;10.35;100.00
75136;BME280;63707;52.212;9.540;2023-11-19T10:27:31;99129.03;;;10.26;100.00
75136;BME280;63707;52.212;9.540;2023-11-19T10:29:59;99122.19;;;10.17;100.00
75136;BME280;63707;52.212;9.540;2023-11-19T10:32:25;99117.06;;;10.08;100.00
75136;BME280;63707;52.212;9.540;2023-11-19T10:34:50;99111.19;;;11.08;100.00
75136;BME280;63707;52.212;9.540;2023-11-19T10:37:27;99120.84;;;11.34;100.00
75136;BME280;63707;52.212;9.540;2023-11-19T10:39:54;99112.97;;;11.14;100.00
75136;BME280;63707;52.212;9.540;2023-11-19T10:42:20;99114.66;;;10.85;100.00
75136;BME280;63707;52.212;9.540;2023-11-19T10:44:47;99117.84;;;10.82;100.00
75136;BME280;63707;52.212;9.540;2023-11-19T10:47:14;99106.69;;;11.14;100.00
75136;BME280;63707;52.212;9.540;2023-11-19T10:49:39;99115.09;;;11.00;100.00
75136;BME280;63707;52.212;9.540;2023-11-19T10:52:07;99115.00;;;11.19;100.00
75136;BME280;63707;52.212;9.540;2023-11-19T10:54:34;99111.47;;;11.30;100.00
75136;BME280;63707;52.212;9.540;2023-11-19T10:57:01;99118.06;;;11.11;100.00
75136;BME280;63707;52.212;9.540;2023-11-19T10:59:29;99117.00;;;10.82;100.00
75136;BME280;63707;52.212;9.540;2023-11-19T11:01:57;99121.38;;;11.01;100.00
75136;BME280;63707;52.212;9.540;2023-11-19T11:04:25;99117.75;;;11.19;100.00
75136;BME280;63707;52.212;9.540;2023-11-19T11:06:58;99108.75;;;11.30;100.00
75136;BME280;63707;52.212;9.540;2023-11-19T11:09:26;99116.56;;;11.26;100.00
75136;BME280;63707;52.212;9.540;2023-11-19T11:11:52;99111.75;;;11.52;100.00
75136;BME280;63707;52.212;9.540;2023-11-19T11:14:18;99107.97;;;11.64;100.00
75136;BME280;63707;52.212;9.540;2023-11-19T11:16:46;99106.19;;;11.70;100.00
75136;BME280;63707;52.212;9.540;2023-11-19T11:19:15;99101.59;;;11.82;100.00
75136;BME280;63707;52.212;9.540;2023-11-19T11:21:44;99112.38;;;12.36;100.00
75136;BME280;63707;52.212;9.540;2023-11-19T11:24:28;99106.38;;;11.87;100.00
75136;BME280;63707;52.212;9.540;2023-11-19T11:27:15;99108.84;;;11.88;100.00
75136;BME280;63707;52.212;9.540;2023-11-19T11:29:52;99103.22;;;11.60;100.00
75136;BME280;63707;52.212;9.540;2023-11-19T11:32:33;99108.19;;;11.40;100.00
75136;BME280;63707;52.212;9.540;2023-11-19T11:35:27;99107.91;;;11.29;100.00
75136;BME280;63707;52.212;9.540;2023-11-19T11:38:00;99114.44;;;11.93;100.00
75136;BME280;63707;52.212;9.540;2023-11-19T11:40:28;99119.72;;;12.23;100.00
75136;BME280;63707;52.212;9.540;2023-11-19T11:42:53;99108.47;;;12.32;100.00
75136;BME280;63707;52.212;9.540;2023-11-19T11:45:19;99105.59;;;11.68;100.00
75136;BME280;63707;52.212;9.540;2023-11-19T11:48:19;99111.53;;;12.23;100.00
75136;BME280;63707;52.212;9.540;2023-11-19T11:50:56;99108.38;;;12.03;100.00
75136;BME280;63707;52.212;9.540;2023-11-19T11:53:23;99107.81;;;12.53;100.00
75136;BME280;63707;52.212;9.540;2023-11-19T11:55:54;99105.53;;;11.98;100.00
75136;BME280;63707;52.212;9.540;2023-11-19T11:58:30;99113.94;;;11.96;100.00
75136;BME280;63707;52.212;9.540;2023-11-19T12:00:58;99120.25;;;11.97;100.00
75136;BME280;63707;52.212;9.540;2023-11-19T12:03:24;99117.97;;;12.17;100.00
75136;BME280;63707;52.212;9.540;2023-11-19T12:05:53;99116.88;;;12.18;100.00
75136;BME280;63707;52.212;9.540;2023-11-19T12:08:20;99118.88;;;12.46;100.00
75136;BME280;63707;52.212;9.540;2023-11-19T12:10:47;99120.19;;;12.84;100.00
75136;BME280;63707;52.212;9.540;2023-11-19T12:13:13;99114.25;;;12.23;100.00
75136;BME280;63707;52.212;9.540;2023-11-19T12:16:09;99113.56;;;12.16;100.00
75136;BME280;63707;52.212;9.540;2023-11-19T12:18:34;99117.38;;;12.04;100.00
75136;BME280;63707;52.212;9.540;2023-11-19T12:21:02;99126.06;;;12.64;100.00
75136;BME280;63707;52.212;9.540;2023-11-19T12:23:29;99119.09;;;12.45;100.00
75136;BME280;63707;52.212;9.540;2023-11-19T12:25:55;99126.75;;;12.31;100.00
75136;BME280;63707;52.212;9.540;2023-11-19T12:28:20;99130.22;;;12.03;100.00
75136;BME280;63707;52.212;9.540;2023-11-19T12:30:46;99126.16;;;12.06;100.00
75136;BME280;63707;52.212;9.540;2023-11-19T12:33:13;99125.94;;;11.84;100.00
75136;BME280;63707;52.212;9.540;2023-11-19T12:35:40;99122.44;;;11.65;100.00
75136;BME280;63707;52.212;9.540;2023-11-19T12:38:07;99113.66;;;11.40;100.00
75136;BME280;63707;52.212;9.540;2023-11-19T12:40:33;99128.19;;;11.33;100.00
75136;BME280;63707;52.212;9.540;2023-11-19T12:42:58;99134.94;;;11.19;100.00
75136;BME280;63707;52.212;9.540;2023-11-19T12:45:34;99127.09;;;11.11;100.00
75136;BME280;63707;52.212;9.540;2023-11-19T12:48:04;99123.38;;;10.94;100.00
75136;BME280;63707;52.212;9.540;2023-11-19T12:50:50;99123.44;;;10.87;100.00
75136;BME280;63707;52.212;9.540;2023-11-19T12:53:17;99136.19;;;10.75;100.00